createdAt,value
2019-06-26T15:13:40.850Z,4.85
2019-06-26T15:16:09.072Z,4.75
2019-06-26T15:18:37.281Z,5.67
2019-06-26T15:21:05.496Z,4.65
2019-06-26T15:23:33.715Z,5.25
2019-06-26T15:26:01.952Z,5.42
2019-06-26T15:28:30.156Z,5.08
2019-06-26T15:30:58.383Z,5.28
2019-06-26T15:33:26.592Z,5.00
2019-06-26T15:35:55.160Z,5.05
2019-06-26T15:38:23.412Z,4.70
2019-06-26T15:40:51.656Z,4.65
2019-06-26T15:43:19.860Z,4.60
2019-06-26T15:45:48.090Z,4.33
2019-06-26T15:48:16.457Z,4.62
2019-06-26T15:50:44.696Z,4.00
2019-06-26T15:53:12.905Z,4.85
2019-06-26T15:55:41.195Z,4.55
2019-06-26T15:58:09.452Z,4.15
2019-06-26T16:00:37.726Z,5.03
2019-06-26T16:03:05.940Z,4.22
2019-06-26T16:05:34.139Z,4.37
2019-06-26T16:08:02.508Z,4.70
2019-06-26T16:10:34.293Z,4.05
2019-06-26T16:13:00.697Z,4.67
2019-06-26T16:15:28.925Z,4.17
2019-06-26T16:17:58.780Z,4.58
2019-06-26T16:20:27.012Z,4.62
2019-06-26T16:22:55.402Z,4.17
2019-06-26T16:25:23.625Z,4.35
2019-06-26T16:28:04.641Z,4.62
2019-06-26T16:30:23.406Z,4.58
2019-06-26T16:32:51.622Z,4.50
2019-06-26T16:35:19.824Z,4.62
2019-06-26T16:37:48.069Z,4.83
2019-06-26T16:40:16.276Z,4.80
2019-06-26T16:42:44.700Z,4.67
2019-06-26T16:45:13.089Z,4.53
2019-06-26T16:47:41.304Z,4.45
2019-06-26T16:50:09.601Z,4.77
2019-06-26T16:52:48.584Z,5.67
2019-06-26T16:55:07.832Z,5.17
2019-06-26T16:57:35.999Z,5.03
2019-06-26T17:00:09.903Z,5.42
2019-06-26T17:02:37.493Z,5.33
2019-06-26T17:05:06.720Z,5.47
2019-06-26T17:10:02.537Z,5.60
2019-06-26T17:12:30.751Z,5.47
2019-06-26T17:14:58.977Z,5.50
2019-06-26T17:17:27.220Z,5.83
2019-06-26T17:19:55.423Z,5.75
2019-06-26T17:22:23.648Z,6.10
2019-06-26T17:24:51.876Z,5.30
2019-06-26T17:27:20.095Z,5.83
2019-06-26T17:29:48.372Z,5.97
2019-06-26T17:32:16.686Z,6.08
2019-06-26T17:34:44.892Z,6.30
2019-06-26T17:37:13.113Z,6.05
2019-06-26T17:39:41.324Z,6.17
2019-06-26T17:42:09.569Z,6.50
2019-06-26T17:44:37.774Z,6.53
2019-06-26T17:47:06.041Z,6.30
2019-06-26T17:49:34.332Z,6.40
2019-06-26T17:52:02.619Z,6.25
2019-06-26T17:54:30.920Z,6.83
2019-06-26T17:56:59.172Z,7.22
2019-06-26T17:59:27.504Z,6.42
2019-06-26T18:01:55.753Z,6.47
2019-06-26T18:04:24.301Z,6.97
2019-06-26T18:06:52.525Z,6.80
2019-06-26T18:09:20.778Z,6.40
2019-06-26T18:11:49.113Z,6.55
2019-06-26T18:14:17.341Z,6.05
2019-06-26T18:16:45.574Z,6.50
2019-06-26T18:19:13.835Z,6.72
2019-06-26T18:21:42.054Z,6.05
2019-06-26T18:24:10.312Z,6.03
2019-06-26T18:26:38.554Z,6.17
2019-06-26T18:29:06.897Z,7.45
2019-06-26T18:31:35.225Z,7.03
2019-06-26T18:34:03.645Z,6.80
2019-06-26T18:36:37.531Z,6.70
2019-06-26T18:39:07.910Z,6.80
2019-06-26T18:41:36.399Z,6.87
2019-06-26T18:44:04.645Z,6.85
2019-06-26T18:46:32.923Z,6.95
2019-06-26T18:49:01.175Z,6.35
2019-06-26T18:51:29.404Z,6.28
2019-06-26T18:54:01.336Z,6.33
2019-06-26T18:56:29.650Z,6.55
2019-06-26T18:58:57.892Z,6.50
2019-06-26T19:01:26.127Z,6.92
2019-06-26T19:03:54.443Z,7.00
2019-06-26T19:06:22.945Z,6.30
2019-06-26T19:08:51.274Z,6.20
2019-06-26T19:11:19.723Z,6.75
2019-06-26T19:13:47.995Z,6.75
2019-06-26T19:16:16.289Z,7.00
2019-06-26T19:18:44.628Z,7.10
2019-06-26T19:21:12.918Z,7.60
2019-06-26T19:23:41.251Z,6.70
2019-06-26T19:26:09.589Z,6.92
2019-06-26T19:28:37.998Z,7.08
2019-06-26T19:31:06.487Z,6.58
2019-06-26T19:33:36.793Z,7.45
2019-06-26T19:36:05.631Z,6.72
2019-06-26T19:38:33.902Z,7.37
2019-06-26T19:41:02.251Z,7.30
2019-06-26T19:43:30.625Z,6.95
2019-06-26T19:45:58.881Z,7.58
2019-06-26T19:48:27.100Z,6.70
2019-06-26T19:50:55.334Z,9.60
2019-06-26T19:53:23.557Z,8.03
2019-06-26T19:55:51.827Z,8.38
2019-06-26T19:58:21.525Z,7.85
2019-06-26T20:00:50.060Z,8.15
2019-06-26T20:03:18.352Z,6.95
2019-06-26T20:05:46.569Z,7.10
2019-06-26T20:08:14.862Z,7.25
2019-06-26T20:10:43.171Z,7.83
2019-06-26T20:13:11.425Z,7.05
2019-06-26T20:15:39.702Z,7.35
2019-06-26T20:18:07.970Z,7.83
2019-06-26T20:20:36.293Z,7.65
2019-06-26T20:23:04.679Z,8.08
2019-06-26T20:25:32.936Z,8.10
2019-06-26T20:28:01.239Z,7.42
2019-06-26T20:30:32.861Z,7.90
2019-06-26T20:33:05.173Z,8.23
2019-06-26T20:35:33.491Z,8.70
2019-06-26T20:38:01.808Z,8.40
2019-06-26T20:40:30.045Z,9.25
2019-06-26T20:42:58.333Z,8.50
2019-06-26T20:45:26.625Z,8.95
2019-06-26T20:47:54.834Z,9.03
2019-06-26T20:50:23.167Z,8.88
2019-06-26T20:52:51.471Z,8.98
2019-06-26T20:55:19.984Z,8.80
2019-06-26T20:57:52.246Z,8.80
2019-06-26T21:00:22.633Z,9.38
2019-06-26T21:02:53.997Z,9.43
2019-06-26T21:05:20.885Z,8.83
2019-06-26T21:07:50.262Z,9.25
2019-06-26T21:10:23.673Z,9.40
2019-06-26T21:12:51.913Z,9.00
2019-06-26T21:15:20.129Z,9.40
2019-06-26T21:17:48.470Z,8.35
2019-06-26T21:20:16.728Z,9.40
2019-06-26T21:22:44.972Z,9.10
2019-06-26T21:25:18.739Z,10.50
2019-06-26T21:27:43.210Z,9.30
2019-06-26T21:30:11.437Z,9.50
2019-06-26T21:32:39.694Z,9.48
2019-06-26T21:35:07.964Z,9.55
2019-06-26T21:37:36.210Z,9.35
2019-06-26T21:40:04.417Z,9.55
2019-06-26T21:42:32.660Z,9.60
2019-06-26T21:45:00.886Z,9.43
2019-06-26T21:47:29.093Z,9.73
2019-06-26T21:49:57.315Z,8.83
2019-06-26T21:52:25.529Z,10.13
2019-06-26T21:54:53.747Z,9.20
2019-06-26T21:57:21.972Z,9.95
2019-06-26T21:59:50.245Z,8.93
2019-06-26T22:02:18.549Z,9.08
2019-06-26T22:04:46.778Z,9.58
2019-06-26T22:07:14.980Z,9.93
2019-06-26T22:09:43.186Z,9.63
2019-06-26T22:12:11.680Z,9.50
2019-06-26T22:14:39.967Z,9.78
2019-06-26T22:17:08.284Z,9.53
2019-06-26T22:19:36.497Z,9.55
2019-06-26T22:22:04.730Z,9.35
2019-06-26T22:24:33.007Z,9.83
2019-06-26T22:27:01.224Z,9.58
2019-06-26T22:29:29.439Z,9.15
2019-06-26T22:31:57.671Z,9.18
2019-06-26T22:34:25.948Z,9.65
2019-06-26T22:36:54.262Z,9.75
2019-06-26T22:39:22.452Z,9.15
2019-06-26T22:41:50.676Z,9.58
2019-06-26T22:44:18.905Z,8.73
2019-06-26T22:46:47.131Z,9.53
2019-06-26T22:49:15.406Z,9.68
2019-06-26T22:51:43.607Z,8.73
2019-06-26T22:54:11.844Z,9.50
2019-06-26T22:56:40.083Z,9.25
2019-06-26T22:59:08.312Z,8.95
2019-06-26T23:01:36.520Z,8.35
2019-06-26T23:04:04.849Z,8.85
2019-06-26T23:06:37.371Z,8.90
2019-06-26T23:09:05.049Z,9.25
2019-06-26T23:11:33.272Z,8.80
2019-06-26T23:14:01.540Z,9.48
2019-06-26T23:16:29.769Z,9.60
2019-06-26T23:18:57.992Z,9.45
2019-06-26T23:21:26.260Z,8.65
2019-06-26T23:23:55.852Z,9.10
2019-06-26T23:26:24.694Z,8.98
2019-06-26T23:28:53.039Z,9.05
2019-06-26T23:31:21.261Z,9.23
2019-06-26T23:33:49.473Z,9.28
2019-06-26T23:36:17.691Z,8.93
2019-06-26T23:38:45.929Z,9.38
2019-06-26T23:41:15.875Z,8.48
2019-06-26T23:43:44.083Z,8.55
2019-06-26T23:46:12.319Z,8.73
2019-06-26T23:48:40.534Z,8.95
2019-06-26T23:51:08.740Z,8.88
2019-06-26T23:53:36.957Z,8.60
2019-06-26T23:56:05.173Z,8.43
2019-06-26T23:58:33.404Z,8.53
